Salmon, Texas
Current Conditions -  °F | °C
As of 8:15 PM on Thursday 18 Dec 2014 (Local Time) from KPSN Reporting Station
Haze Haze  
Wind Chill: 51°   Ceiling: 600
Heat Index: 51°   Visibility: 4mi
Dew Point: 50°   Wind: 7mph
Humidity: 95%   Direction: 20°NNE
Pressure: 30.15"   Gusts: NA
Location:  31.6239°N, 95.528°W
Report Text: KPSN 190215Z AUTO 02006KT 4SM BR OVC006 11/10 A3015 RMK AO2 T01080101
Loading
Personal Weather Stations






























Interactive Weather Map New forecast layout! Learn more

10-Day Weather Forecast

Advertisements
Track Severe Weather on mobile